首页
METAR-TAF:

METAR-TAF

机场 :

Bella Bella, 不列颠哥伦比亚, 加拿大

纬度: 52-11-06N, 经度: 128-09-24W, 海拔: 43米

当前天气观测

该预报发布于1小时和9分钟前的23:00 UTC
风速5节,风向多变
温度 16°C
湿度 63%
气压 1018 hPa
能見度: 14.5公里
少量云层高于3200英尺

METAR: CBBC 162300Z AUTO VRB05KT 9SM FEW032 16/09 A3006 RMK SLP183

时间: 17:09 (00:09 UTC)

预报

该预报发布于5小时和29分钟前的18:40 UTC
预报有效从16日的 19点(UTC)到 17日的 05点(UTC)
风速6节,风向西北
能見度: 10公里
少量云层高于2000英尺
多云层高于12000英尺
短暂存在
从 16日的 19点(UTC)到 17日的 05点(UTC)
多云层高于2000英尺

TAF: CBBC 161840Z 1619/1705 32006KT P6SM FEW020 BKN120 TEMPO 1619/1705 BKN020 RMK FCST BASED ON AUTO OBS. NXT FCST BY 170100Z

超过4000个机场的气象观测和天气预报(METAR&TAF报告)。

可查询的气象台以黄色和红色小点在地图上表示。

将鼠标移到小点上方,可查看气象台名称。

然后点击查看天气观测和预报。

如需切换地图:点击带黑十字的绿色按钮放大地图;点击带横线的绿色按钮缩小地图;或者点击绿色箭头查看邻近地区的地图。


METAR-TAF: